| time (UTC) | temp F | wind direction | speed MPH | gust MPH | rain 1hr in | rain 24hr in | rain mn in | humidity % | barometer mb |
| 20260509215041 | 64 | 182 | 0.0 | 1.0 | 0.00 | 0.00 | 0.00 | 38 | 1006.7 |
| 20260509214538 | 63 | 182 | 1.0 | 1.0 | 0.00 | 0.00 | 0.00 | 40 | 1006.9 |
| 20260509214035 | 64 | 182 | 1.0 | 1.0 | 0.00 | 0.00 | 0.00 | 39 | 1006.7 |
| 20260509213531 | 63 | 182 | 0.0 | 0.0 | 0.00 | 0.00 | 0.00 | 43 | 1006.7 |
| 20260509213028 | 63 | 182 | 2.0 | 2.0 | 0.00 | 0.00 | 0.00 | 40 | 1006.6 |
| 20260509212525 | 63 | 182 | 1.0 | 1.0 | 0.00 | 0.00 | 0.00 | 40 | 1006.6 |
| 20260509212022 | 64 | 182 | 0.0 | 1.0 | 0.00 | 0.00 | 0.00 | 40 | 1006.4 |
| 20260509211518 | 65 | 182 | 2.0 | 3.0 | 0.00 | 0.00 | 0.00 | 39 | 1006.4 |
| 20260509211015 | 65 | 182 | 2.0 | 3.0 | 0.00 | 0.00 | 0.00 | 39 | 1006.4 |
| 20260509210511 | 65 | 182 | 1.0 | 2.0 | 0.00 | 0.00 | 0.00 | 39 | 1006.4 |
| 20260509210008 | 65 | 182 | 1.0 | 1.0 | 0.00 | 0.00 | 0.00 | 41 | 1006.3 |
| 20260509205502 | 65 | 182 | 4.0 | 6.0 | 0.00 | 0.00 | 0.00 | 38 | 1006.2 |
| 20260509204958 | 65 | 182 | 1.0 | 2.0 | 0.00 | 0.00 | 0.00 | 40 | 1006.2 |
| 20260509204454 | 65 | 182 | 1.0 | 2.0 | 0.00 | 0.00 | 0.00 | 39 | 1006.1 |
| 20260509203951 | 66 | 182 | 3.0 | 4.0 | 0.00 | 0.00 | 0.00 | 38 | 1006.1 |
| 20260509203446 | 65 | 182 | 1.0 | 1.0 | 0.00 | 0.00 | 0.00 | 39 | 1005.9 |
| 20260509202944 | 65 | 182 | 1.0 | 1.0 | 0.00 | 0.00 | 0.00 | 38 | 1005.9 |
| 20260509202440 | 65 | 182 | 2.0 | 4.0 | 0.00 | 0.00 | 0.00 | 38 | 1005.7 |
| 20260509201936 | 65 | 182 | 3.0 | 3.0 | 0.00 | 0.00 | 0.00 | 39 | 1005.7 |
| 20260509201431 | 65 | 182 | 2.0 | 6.0 | 0.00 | 0.00 | 0.00 | 40 | 1005.9 |
| 20260509200928 | 65 | 182 | 5.0 | 9.0 | 0.00 | 0.00 | 0.00 | 40 | 1005.6 |
| 20260509200428 | 65 | 182 | 1.0 | 1.0 | 0.00 | 0.00 | 0.00 | 42 | 1005.7 |
| 20260509195925 | 65 | 182 | 2.0 | 2.0 | 0.00 | 0.00 | 0.00 | 43 | 1005.4 |
| 20260509195421 | 66 | 182 | 2.0 | 3.0 | 0.00 | 0.00 | 0.00 | 42 | 1005.3 |
| 20260509194915 | 66 | 182 | 2.0 | 3.0 | 0.00 | 0.00 | 0.00 | 42 | 1005.3 |
| 20260509194411 | 67 | 182 | 0.0 | 0.0 | 0.00 | 0.00 | 0.00 | 41 | 1005.1 |
| 20260509193908 | 67 | 182 | 1.0 | 1.0 | 0.00 | 0.00 | 0.00 | 38 | 1005.0 |
| 20260509193408 | 67 | 182 | 1.0 | 1.0 | 0.00 | 0.00 | 0.00 | 38 | 1004.7 |
| 20260509192904 | 67 | 182 | 1.0 | 1.0 | 0.00 | 0.00 | 0.00 | 37 | 1004.6 |
| 20260509192400 | 68 | 182 | 2.0 | 3.0 | 0.00 | 0.00 | 0.00 | 36 | 1004.5 |
| 20260509191855 | 68 | 182 | 1.0 | 2.0 | 0.00 | 0.00 | 0.00 | 36 | 1004.5 |
| 20260509191351 | 69 | 182 | 0.0 | 1.0 | 0.00 | 0.00 | 0.00 | 37 | 1004.4 |
| 20260509190848 | 69 | 182 | 0.0 | 1.0 | 0.00 | 0.00 | 0.00 | 37 | 1004.2 |
| 20260509190345 | 69 | 182 | 1.0 | 2.0 | 0.00 | 0.00 | 0.00 | 39 | 1004.2 |
| 20260509185842 | 68 | 182 | 2.0 | 3.0 | 0.00 | 0.00 | 0.00 | 38 | 1004.2 |
| 20260509185338 | 69 | 182 | 3.0 | 4.0 | 0.00 | 0.00 | 0.00 | 37 | 1004.3 |
| 20260509184836 | 68 | 182 | 0.0 | 1.0 | 0.00 | 0.00 | 0.00 | 40 | 1004.1 |
| 20260509184333 | 68 | 182 | 1.0 | 1.0 | 0.00 | 0.00 | 0.00 | 37 | 1004.2 |
| 20260509183830 | 68 | 182 | 3.0 | 3.0 | 0.00 | 0.00 | 0.00 | 36 | 1004.2 |
| 20260509183324 | 68 | 182 | 2.0 | 2.0 | 0.00 | 0.00 | 0.00 | 37 | 1004.3 |
| 20260509182821 | 67 | 182 | 2.0 | 2.0 | 0.00 | 0.00 | 0.00 | 40 | 1004.2 |
| 20260509182318 | 68 | 182 | 1.0 | 2.0 | 0.00 | 0.00 | 0.00 | 39 | 1004.1 |
| 20260509181815 | 67 | 182 | 2.0 | 3.0 | 0.00 | 0.00 | 0.00 | 38 | 1004.2 |
| 20260509181313 | 67 | 182 | 2.0 | 3.0 | 0.00 | 0.00 | 0.00 | 41 | 1004.1 |
| 20260509180809 | 67 | 182 | 0.0 | 1.0 | 0.00 | 0.00 | 0.00 | 40 | 1004.1 |
| 20260509180300 | 67 | 182 | 1.0 | 2.0 | 0.00 | 0.00 | 0.00 | 39 | 1004.0 |
| 20260509175756 | 66 | 182 | 2.0 | 2.0 | 0.00 | 0.00 | 0.00 | 41 | 1003.9 |
| 20260509175253 | 67 | 182 | 0.0 | 1.0 | 0.00 | 0.00 | 0.00 | 40 | 1004.1 |
| 20260509174749 | 67 | 182 | 1.0 | 1.0 | 0.00 | 0.00 | 0.00 | 38 | 1004.1 |
| 20260509174244 | 67 | 182 | 1.0 | 1.0 | 0.00 | 0.00 | 0.00 | 38 | 1003.9 |
| 20260509173741 | 67 | 182 | 0.0 | 1.0 | 0.00 | 0.00 | 0.00 | 37 | 1003.9 |
| 20260509173236 | 67 | 182 | 1.0 | 1.0 | 0.00 | 0.00 | 0.00 | 39 | 1004.2 |
| 20260509172732 | 67 | 182 | 0.0 | 1.0 | 0.00 | 0.00 | 0.00 | 40 | 1004.0 |
| 20260509172229 | 66 | 182 | 0.0 | 1.0 | 0.00 | 0.00 | 0.00 | 41 | 1004.2 |
| 20260509171724 | 67 | 182 | 2.0 | 3.0 | 0.00 | 0.00 | 0.00 | 37 | 1004.1 |
| 20260509171221 | 66 | 182 | 1.0 | 1.0 | 0.00 | 0.00 | 0.00 | 39 | 1004.0 |
| 20260509170718 | 66 | 182 | 1.0 | 1.0 | 0.00 | 0.00 | 0.00 | 41 | 1004.0 |
| 20260509170214 | 66 | 182 | 2.0 | 2.0 | 0.00 | 0.00 | 0.00 | 38 | 1004.0 |
| 20260509165713 | 66 | 182 | 0.0 | 0.0 | 0.00 | 0.00 | 0.00 | 37 | 1004.2 |
| 20260509165208 | 66 | 182 | 0.0 | 0.0 | 0.00 | 0.00 | 0.00 | 38 | 1004.1 |
| 20260509164704 | 65 | 182 | 0.0 | 0.0 | 0.00 | 0.00 | 0.00 | 42 | 1004.4 |
| 20260509164200 | 64 | 182 | 0.0 | 0.0 | 0.00 | 0.00 | 0.00 | 40 | 1004.4 |
| 20260509163658 | 64 | 182 | 0.0 | 0.0 | 0.00 | 0.00 | 0.00 | 38 | 1004.4 |
| 20260509163154 | 64 | 182 | 1.0 | 1.0 | 0.00 | 0.00 | 0.00 | 38 | 1004.5 |
| 20260509162652 | 64 | 182 | 0.0 | 0.0 | 0.00 | 0.00 | 0.00 | 39 | 1004.5 |
| 20260509162147 | 64 | 182 | 0.0 | 0.0 | 0.00 | 0.00 | 0.00 | 37 | 1004.3 |
| 20260509161643 | 64 | 182 | 0.0 | 0.0 | 0.00 | 0.00 | 0.00 | 39 | 1004.5 |
| 20260509161138 | 63 | 182 | 0.0 | 0.0 | 0.00 | 0.00 | 0.00 | 37 | 1004.6 |
| 20260509160634 | 63 | 182 | 0.0 | 0.0 | 0.00 | 0.00 | 0.00 | 37 | 1004.6 |
| 20260509160130 | 63 | 182 | 0.0 | 0.0 | 0.00 | 0.00 | 0.00 | 37 | 1004.8 |
| 20260509155626 | 64 | 182 | 0.0 | 0.0 | 0.00 | 0.00 | 0.00 | 36 | 1004.8 |
| 20260509155122 | 65 | 182 | 0.0 | 0.0 | 0.00 | 0.00 | 0.00 | 36 | 1004.7 |
| 20260509154618 | 65 | 182 | 0.0 | 1.0 | 0.00 | 0.00 | 0.00 | 35 | 1004.7 |
| 20260509154115 | 66 | 182 | 0.0 | 0.0 | 0.00 | 0.00 | 0.00 | 35 | 1004.5 |
| 20260509153612 | 67 | 181 | 0.0 | 1.0 | 0.00 | 0.00 | 0.00 | 33 | 1004.6 |
| 20260509153110 | 66 | 181 | 0.0 | 0.0 | 0.00 | 0.00 | 0.00 | 34 | 1004.7 |
| 20260509152605 | 66 | 181 | 0.0 | 0.0 | 0.00 | 0.00 | 0.00 | 34 | 1004.7 |
| 20260509152103 | 67 | 181 | 0.0 | 0.0 | 0.00 | 0.00 | 0.00 | 33 | 1004.6 |
| 20260509151559 | 64 | 181 | 0.0 | 1.0 | 0.00 | 0.00 | 0.00 | 36 | 1004.6 |
| 20260509151057 | 63 | 181 | 0.0 | 0.0 | 0.00 | 0.00 | 0.00 | 39 | 1004.4 |
| 20260509150554 | 62 | 181 | 0.0 | 0.0 | 0.00 | 0.00 | 0.00 | 39 | 1004.4 |
| 20260509150053 | 62 | 182 | 0.0 | 0.0 | 0.00 | 0.00 | 0.00 | 41 | 1004.7 |
| 20260509145548 | 62 | 182 | 1.0 | 1.0 | 0.00 | 0.00 | 0.00 | 39 | 1004.8 |
| 20260509145043 | 62 | 182 | 0.0 | 0.0 | 0.00 | 0.00 | 0.00 | 41 | 1004.5 |
| 20260509144540 | 62 | 182 | 0.0 | 0.0 | 0.00 | 0.00 | 0.00 | 41 | 1004.3 |
| 20260509144037 | 62 | 182 | 0.0 | 0.0 | 0.00 | 0.00 | 0.00 | 41 | 1004.1 |
| 20260509143534 | 62 | 182 | 0.0 | 0.0 | 0.00 | 0.00 | 0.00 | 41 | 1004.2 |
| 20260509143032 | 62 | 182 | 0.0 | 0.0 | 0.00 | 0.00 | 0.00 | 43 | 1004.3 |
| 20260509142527 | 62 | 182 | 0.0 | 0.0 | 0.00 | 0.00 | 0.00 | 42 | 1004.1 |
| 20260509142023 | 63 | 182 | 0.0 | 0.0 | 0.00 | 0.00 | 0.00 | 39 | 1003.6 |
| 20260509141519 | 63 | 182 | 0.0 | 0.0 | 0.00 | 0.00 | 0.00 | 42 | 1003.7 |
| 20260509141016 | 63 | 182 | 0.0 | 0.0 | 0.00 | 0.00 | 0.00 | 42 | 1003.7 |
| 20260509140513 | 63 | 182 | 0.0 | 1.0 | 0.00 | 0.00 | 0.00 | 42 | 1003.6 |
| 20260509140011 | 64 | 182 | 1.0 | 1.0 | 0.00 | 0.00 | 0.00 | 40 | 1004.0 |
| 20260509135508 | 64 | 181 | 0.0 | 1.0 | 0.00 | 0.00 | 0.00 | 40 | 1003.7 |
| 20260509135005 | 65 | 181 | 0.0 | 0.0 | 0.00 | 0.00 | 0.00 | 39 | 1004.0 |
| 20260509134502 | 66 | 181 | 0.0 | 0.0 | 0.00 | 0.00 | 0.00 | 39 | 1003.7 |
| 20260509134000 | 65 | 181 | 0.0 | 0.0 | 0.00 | 0.00 | 0.00 | 41 | 1003.9 |
| 20260509133456 | 64 | 181 | 0.0 | 0.0 | 0.00 | 0.00 | 0.00 | 43 | 1003.7 |
| 20260509132954 | 64 | 181 | 0.0 | 0.0 | 0.00 | 0.00 | 0.00 | 43 | 1003.6 |
| 20260509132452 | 64 | 181 | 0.0 | 0.0 | 0.00 | 0.00 | 0.00 | 45 | 1003.6 |
| 20260509131949 | 64 | 181 | 0.0 | 0.0 | 0.00 | 0.00 | 0.00 | 48 | 1003.6 |
| 20260509131446 | 62 | 181 | 0.0 | 0.0 | 0.00 | 0.00 | 0.00 | 51 | 1003.6 |
| 20260509130943 | 61 | 181 | 0.0 | 0.0 | 0.00 | 0.00 | 0.00 | 55 | 1003.4 |
| 20260509130438 | 60 | 181 | 0.0 | 0.0 | 0.00 | 0.00 | 0.00 | 61 | 1003.2 |
| 20260509125936 | 59 | 182 | 0.0 | 0.0 | 0.00 | 0.00 | 0.00 | 60 | 1003.4 |
| 20260509125432 | 59 | 182 | 0.0 | 0.0 | 0.00 | 0.00 | 0.00 | 61 | 1003.3 |
| 20260509124928 | 59 | 182 | 0.0 | 0.0 | 0.00 | 0.00 | 0.00 | 62 | 1003.2 |
| 20260509124425 | 59 | 181 | 0.0 | 0.0 | 0.00 | 0.00 | 0.00 | 63 | 1003.1 |
| 20260509123923 | 58 | 182 | 0.0 | 0.0 | 0.00 | 0.00 | 0.00 | 66 | 1003.3 |
| 20260509123420 | 58 | 182 | 0.0 | 0.0 | 0.00 | 0.00 | 0.00 | 66 | 1003.3 |
| 20260509122915 | 58 | 181 | 1.0 | 1.0 | 0.00 | 0.00 | 0.00 | 66 | 1003.3 |
| 20260509122413 | 58 | 182 | 0.0 | 0.0 | 0.00 | 0.00 | 0.00 | 66 | 1003.1 |
| 20260509121909 | 57 | 181 | 0.0 | 0.0 | 0.00 | 0.00 | 0.00 | 68 | 1003.0 |
| 20260509121407 | 57 | 182 | 0.0 | 0.0 | 0.00 | 0.00 | 0.00 | 70 | 1002.9 |
| 20260509120905 | 57 | 182 | 0.0 | 0.0 | 0.00 | 0.00 | 0.00 | 70 | 1003.0 |
| 20260509120402 | 57 | 182 | 0.0 | 0.0 | 0.00 | 0.00 | 0.00 | 72 | 1003.1 |
| 20260509115900 | 56 | 182 | 0.0 | 0.0 | 0.00 | 0.00 | 0.00 | 74 | 1003.2 |
| 20260509115357 | 55 | 182 | 0.0 | 0.0 | 0.00 | 0.00 | 0.00 | 76 | 1003.1 |
| 20260509114855 | 54 | 182 | 0.0 | 0.0 | 0.00 | 0.00 | 0.00 | 78 | 1003.1 |
| 20260509114353 | 54 | 182 | 0.0 | 0.0 | 0.00 | 0.00 | 0.00 | 79 | 1002.8 |
| 20260509113852 | 53 | 182 | 0.0 | 0.0 | 0.00 | 0.00 | 0.00 | 82 | 1002.9 |
| 20260509113349 | 53 | 182 | 0.0 | 0.0 | 0.00 | 0.00 | 0.00 | 83 | 1002.8 |
| 20260509112845 | 53 | 183 | 0.0 | 0.0 | 0.00 | 0.00 | 0.00 | 84 | 1002.8 |
| 20260509112343 | 53 | 183 | 0.0 | 0.0 | 0.00 | 0.00 | 0.00 | 84 | 1002.8 |
| 20260509111840 | 53 | 182 | 0.0 | 0.0 | 0.00 | 0.00 | 0.00 | 84 | 1002.8 |
| 20260509111336 | 53 | 182 | 0.0 | 0.0 | 0.00 | 0.00 | 0.00 | 84 | 1002.8 |
| 20260509110834 | 53 | 183 | 0.0 | 0.0 | 0.00 | 0.00 | 0.00 | 84 | 1002.6 |
| 20260509110330 | 53 | 182 | 0.0 | 0.0 | 0.00 | 0.00 | 0.00 | 84 | 1002.7 |
| 20260509105829 | 53 | 183 | 0.0 | 0.0 | 0.00 | 0.00 | 0.00 | 84 | 1002.7 |
| 20260509105326 | 53 | 183 | 0.0 | 0.0 | 0.00 | 0.00 | 0.00 | 84 | 1002.5 |
| 20260509104822 | 53 | 183 | 0.0 | 0.0 | 0.00 | 0.00 | 0.00 | 84 | 1002.3 |
| 20260509104319 | 53 | 183 | 0.0 | 0.0 | 0.00 | 0.00 | 0.00 | 84 | 1002.5 |
| 20260509103818 | 53 | 183 | 0.0 | 0.0 | 0.00 | 0.00 | 0.00 | 83 | 1002.4 |
| 20260509103314 | 53 | 182 | 0.0 | 0.0 | 0.00 | 0.00 | 0.00 | 83 | 1002.4 |
| 20260509102813 | 53 | 182 | 0.0 | 0.0 | 0.00 | 0.00 | 0.00 | 83 | 1002.2 |
| 20260509102310 | 53 | 182 | 0.0 | 0.0 | 0.00 | 0.00 | 0.00 | 83 | 1002.2 |
| 20260509101806 | 53 | 182 | 0.0 | 0.0 | 0.00 | 0.00 | 0.00 | 82 | 1002.2 |
| 20260509101302 | 53 | 182 | 0.0 | 0.0 | 0.00 | 0.00 | 0.00 | 82 | 1002.1 |
| 20260509100800 | 54 | 182 | 0.0 | 0.0 | 0.00 | 0.00 | 0.00 | 81 | 1001.9 |
| 20260509100257 | 54 | 182 | 0.0 | 0.0 | 0.00 | 0.00 | 0.00 | 81 | 1001.9 |
| 20260509095753 | 54 | 182 | 0.0 | 0.0 | 0.00 | 0.00 | 0.00 | 81 | 1002.2 |
| 20260509095251 | 54 | 182 | 0.0 | 0.0 | 0.00 | 0.00 | 0.00 | 80 | 1002.0 |
| 20260509094748 | 54 | 182 | 0.0 | 1.0 | 0.00 | 0.00 | 0.00 | 80 | 1002.2 |
| 20260509094244 | 55 | 182 | 0.0 | 0.0 | 0.00 | 0.00 | 0.00 | 80 | 1002.2 |
| 20260509093742 | 55 | 182 | 0.0 | 0.0 | 0.00 | 0.00 | 0.00 | 79 | 1002.2 |
| 20260509093239 | 55 | 182 | 0.0 | 0.0 | 0.00 | 0.00 | 0.00 | 79 | 1002.5 |
| 20260509092738 | 55 | 182 | 0.0 | 0.0 | 0.00 | 0.00 | 0.00 | 79 | 1002.4 |
| 20260509092235 | 55 | 182 | 0.0 | 0.0 | 0.00 | 0.00 | 0.00 | 79 | 1002.5 |
| 20260509091733 | 55 | 182 | 0.0 | 0.0 | 0.00 | 0.00 | 0.00 | 79 | 1002.5 |
| 20260509091229 | 54 | 182 | 0.0 | 0.0 | 0.00 | 0.00 | 0.00 | 79 | 1002.7 |
| 20260509090727 | 54 | 182 | 0.0 | 0.0 | 0.00 | 0.00 | 0.00 | 79 | 1002.4 |
| 20260509090224 | 54 | 182 | 0.0 | 0.0 | 0.00 | 0.00 | 0.00 | 79 | 1002.5 |
| 20260509085722 | 54 | 182 | 0.0 | 1.0 | 0.00 | 0.00 | 0.00 | 79 | 1002.5 |
| 20260509085219 | 54 | 182 | 0.0 | 0.0 | 0.00 | 0.00 | 0.00 | 79 | 1002.5 |
| 20260509084715 | 54 | 182 | 0.0 | 0.0 | 0.00 | 0.00 | 0.00 | 79 | 1002.4 |
| 20260509084212 | 54 | 182 | 0.0 | 0.0 | 0.00 | 0.00 | 0.00 | 79 | 1002.4 |
| 20260509083710 | 54 | 182 | 0.0 | 0.0 | 0.00 | 0.00 | 0.00 | 79 | 1002.3 |
| 20260509083206 | 54 | 182 | 0.0 | 0.0 | 0.00 | 0.00 | 0.00 | 79 | 1002.3 |
| 20260509082703 | 54 | 182 | 0.0 | 0.0 | 0.00 | 0.00 | 0.00 | 78 | 1002.4 |
| 20260509082159 | 54 | 182 | 0.0 | 0.0 | 0.00 | 0.00 | 0.00 | 78 | 1002.3 |
| 20260509081657 | 54 | 182 | 0.0 | 0.0 | 0.00 | 0.00 | 0.00 | 78 | 1002.5 |
| 20260509081154 | 54 | 182 | 0.0 | 0.0 | 0.00 | 0.00 | 0.00 | 78 | 1002.4 |
| 20260509080652 | 54 | 182 | 0.0 | 0.0 | 0.00 | 0.00 | 0.00 | 78 | 1002.3 |
| 20260509080149 | 54 | 182 | 0.0 | 0.0 | 0.00 | 0.00 | 0.00 | 77 | 1002.4 |
| 20260509075648 | 54 | 182 | 0.0 | 0.0 | 0.00 | 0.00 | 0.00 | 77 | 1002.6 |
| 20260509075145 | 54 | 182 | 0.0 | 0.0 | 0.00 | 0.00 | 0.00 | 76 | 1002.6 |
| 20260509074642 | 54 | 182 | 0.0 | 2.0 | 0.00 | 0.00 | 0.00 | 76 | 1002.5 |
| 20260509074138 | 54 | 182 | 1.0 | 1.0 | 0.00 | 0.00 | 0.00 | 76 | 1002.5 |
| 20260509073635 | 54 | 182 | 0.0 | 0.0 | 0.00 | 0.00 | 0.00 | 75 | 1002.5 |
| 20260509073131 | 54 | 182 | 0.0 | 0.0 | 0.00 | 0.00 | 0.00 | 75 | 1002.6 |
| 20260509072628 | 54 | 182 | 0.0 | 0.0 | 0.00 | 0.00 | 0.00 | 75 | 1002.6 |
| 20260509072125 | 54 | 182 | 0.0 | 0.0 | 0.00 | 0.00 | 0.00 | 74 | 1002.6 |
| 20260509071622 | 54 | 182 | 0.0 | 0.0 | 0.00 | 0.00 | 0.00 | 73 | 1002.6 |
| 20260509071119 | 54 | 182 | 0.0 | 0.0 | 0.00 | 0.00 | 0.00 | 72 | 1002.7 |
| 20260509070616 | 54 | 182 | 0.0 | 0.0 | 0.00 | 0.00 | 0.00 | 72 | 1002.6 |
| 20260509070112 | 54 | 182 | 0.0 | 0.0 | 0.00 | 0.00 | 0.00 | 71 | 1002.8 |
| 20260509065608 | 54 | 182 | 0.0 | 0.0 | 0.00 | 0.00 | 0.00 | 71 | 1002.9 |
| 20260509065104 | 54 | 182 | 0.0 | 0.0 | 0.00 | 0.00 | 0.00 | 70 | 1003.1 |
| 20260509064602 | 54 | 182 | 0.0 | 0.0 | 0.00 | 0.00 | 0.00 | 70 | 1003.2 |
| 20260509064100 | 54 | 182 | 0.0 | 0.0 | 0.00 | 0.00 | 0.00 | 69 | 1003.2 |
| 20260509063555 | 54 | 182 | 0.0 | 0.0 | 0.00 | 0.00 | 0.00 | 69 | 1003.2 |
| 20260509063053 | 54 | 182 | 0.0 | 1.0 | 0.00 | 0.00 | 0.00 | 68 | 1003.3 |
| 20260509062550 | 54 | 182 | 0.0 | 0.0 | 0.00 | 0.00 | 0.00 | 68 | 1003.3 |
| 20260509062047 | 54 | 182 | 0.0 | 0.0 | 0.00 | 0.00 | 0.00 | 68 | 1003.4 |
| 20260509061544 | 54 | 182 | 1.0 | 1.0 | 0.00 | 0.00 | 0.00 | 67 | 1003.5 |
| 20260509061041 | 54 | 182 | 0.0 | 0.0 | 0.00 | 0.00 | 0.00 | 67 | 1003.7 |
| 20260509060539 | 54 | 182 | 0.0 | 0.0 | 0.00 | 0.00 | 0.00 | 67 | 1003.7 |
| 20260509060034 | 53 | 182 | 0.0 | 0.0 | 0.00 | 0.00 | 0.00 | 67 | 1003.7 |
| 20260509055530 | 53 | 182 | 0.0 | 0.0 | 0.00 | 0.00 | 0.00 | 67 | 1003.9 |
| 20260509055026 | 53 | 182 | 0.0 | 0.0 | 0.00 | 0.00 | 0.00 | 67 | 1003.6 |
| 20260509054523 | 53 | 182 | 0.0 | 0.0 | 0.00 | 0.00 | 0.00 | 67 | 1003.7 |
| 20260509054021 | 53 | 182 | 0.0 | 0.0 | 0.00 | 0.00 | 0.00 | 68 | 1004.1 |
| 20260509053519 | 53 | 182 | 0.0 | 0.0 | 0.00 | 0.00 | 0.00 | 68 | 1004.1 |
| 20260509053016 | 53 | 182 | 0.0 | 0.0 | 0.00 | 0.00 | 0.00 | 69 | 1004.3 |
| 20260509052513 | 53 | 182 | 0.0 | 0.0 | 0.00 | 0.00 | 0.00 | 69 | 1004.3 |
| 20260509052012 | 53 | 182 | 0.0 | 0.0 | 0.00 | 0.00 | 0.00 | 70 | 1004.4 |
| 20260509051509 | 53 | 182 | 0.0 | 0.0 | 0.00 | 0.00 | 0.00 | 71 | 1004.6 |
| 20260509051006 | 53 | 182 | 0.0 | 0.0 | 0.00 | 0.00 | 0.00 | 71 | 1004.6 |
| 20260509050502 | 53 | 182 | 0.0 | 0.0 | 0.00 | 0.00 | 0.00 | 70 | 1004.6 |
| 20260509045959 | 53 | 182 | 0.0 | 0.0 | 0.00 | 0.00 | 0.00 | 69 | 1004.8 |
| 20260509045456 | 52 | 182 | 0.0 | 0.0 | 0.00 | 0.00 | 0.00 | 69 | 1004.8 |
| 20260509044953 | 52 | 182 | 0.0 | 0.0 | 0.00 | 0.00 | 0.00 | 70 | 1004.8 |
| 20260509044451 | 52 | 182 | 0.0 | 0.0 | 0.00 | 0.00 | 0.00 | 70 | 1004.7 |
| 20260509043948 | 52 | 182 | 0.0 | 0.0 | 0.00 | 0.00 | 0.00 | 70 | 1004.8 |
| 20260509043443 | 52 | 182 | 0.0 | 0.0 | 0.00 | 0.00 | 0.00 | 71 | 1004.7 |
| 20260509042939 | 52 | 182 | 0.0 | 0.0 | 0.00 | 0.00 | 0.00 | 70 | 1004.8 |
| 20260509042437 | 52 | 182 | 0.0 | 0.0 | 0.00 | 0.00 | 0.00 | 70 | 1005.0 |
| 20260509041933 | 52 | 182 | 0.0 | 0.0 | 0.00 | 0.00 | 0.00 | 71 | 1005.3 |
| 20260509041430 | 52 | 182 | 0.0 | 0.0 | 0.00 | 0.00 | 0.00 | 70 | 1005.0 |
| 20260509040928 | 52 | 182 | 0.0 | 0.0 | 0.00 | 0.00 | 0.00 | 69 | 1004.7 |
| 20260509040426 | 52 | 182 | 0.0 | 0.0 | 0.00 | 0.00 | 0.00 | 70 | 1004.8 |
| 20260509035922 | 52 | 182 | 0.0 | 0.0 | 0.00 | 0.00 | 0.00 | 69 | 1004.7 |
| 20260509035419 | 52 | 182 | 0.0 | 0.0 | 0.00 | 0.00 | 0.00 | 69 | 1004.6 |
| 20260509034915 | 53 | 182 | 0.0 | 0.0 | 0.00 | 0.00 | 0.00 | 69 | 1005.0 |
| 20260509034414 | 53 | 182 | 0.0 | 0.0 | 0.00 | 0.00 | 0.00 | 68 | 1005.0 |
| 20260509033910 | 53 | 182 | 0.0 | 0.0 | 0.00 | 0.00 | 0.00 | 68 | 1005.0 |
| 20260509033407 | 53 | 182 | 0.0 | 0.0 | 0.00 | 0.00 | 0.00 | 68 | 1004.9 |
| 20260509032904 | 53 | 182 | 0.0 | 0.0 | 0.00 | 0.00 | 0.00 | 67 | 1005.2 |
| 20260509032401 | 53 | 182 | 0.0 | 0.0 | 0.00 | 0.00 | 0.00 | 67 | 1005.2 |
| 20260509031859 | 53 | 182 | 0.0 | 0.0 | 0.00 | 0.00 | 0.00 | 67 | 1005.1 |
| 20260509031356 | 53 | 182 | 0.0 | 1.0 | 0.00 | 0.00 | 0.00 | 67 | 1005.2 |
| 20260509030853 | 53 | 182 | 0.0 | 0.0 | 0.00 | 0.00 | 0.00 | 67 | 1005.1 |
| 20260509030351 | 53 | 182 | 0.0 | 0.0 | 0.00 | 0.00 | 0.00 | 67 | 1005.1 |
| 20260509025848 | 53 | 182 | 0.0 | 0.0 | 0.00 | 0.00 | 0.00 | 66 | 1005.2 |
| 20260509025343 | 54 | 182 | 0.0 | 0.0 | 0.00 | 0.00 | 0.00 | 66 | 1005.3 |
| 20260509024839 | 54 | 182 | 0.0 | 0.0 | 0.00 | 0.00 | 0.00 | 66 | 1005.4 |
| 20260509024330 | 54 | 182 | 0.0 | 0.0 | 0.00 | 0.00 | 0.00 | 66 | 1005.6 |
| 20260509023827 | 54 | 182 | 0.0 | 0.0 | 0.00 | 0.00 | 0.00 | 66 | 1005.4 |
| 20260509023325 | 54 | 182 | 0.0 | 0.0 | 0.00 | 0.00 | 0.00 | 66 | 1005.4 |
| 20260509022821 | 54 | 182 | 0.0 | 0.0 | 0.00 | 0.00 | 0.00 | 65 | 1005.4 |
| 20260509022319 | 54 | 182 | 0.0 | 0.0 | 0.00 | 0.00 | 0.00 | 65 | 1005.4 |
| 20260509021815 | 54 | 182 | 0.0 | 0.0 | 0.00 | 0.00 | 0.00 | 65 | 1005.5 |
| 20260509021312 | 55 | 182 | 0.0 | 0.0 | 0.00 | 0.00 | 0.00 | 64 | 1005.5 |
| 20260509020810 | 55 | 182 | 0.0 | 0.0 | 0.00 | 0.00 | 0.00 | 64 | 1005.5 |
| 20260509020307 | 55 | 182 | 0.0 | 0.0 | 0.00 | 0.00 | 0.00 | 63 | 1005.6 |
| 20260509015804 | 55 | 182 | 1.0 | 1.0 | 0.00 | 0.00 | 0.00 | 63 | 1005.4 |
| 20260509015306 | 55 | 182 | 0.0 | 0.0 | 0.00 | 0.00 | 0.00 | 62 | 1005.5 |
| 20260509014759 | 55 | 182 | 0.0 | 0.0 | 0.00 | 0.00 | 0.00 | 60 | 1005.5 |
| 20260509014256 | 55 | 182 | 0.0 | 0.0 | 0.00 | 0.00 | 0.00 | 59 | 1005.6 |
| 20260509013753 | 55 | 182 | 0.0 | 1.0 | 0.00 | 0.00 | 0.00 | 57 | 1005.6 |
| 20260509013248 | 56 | 182 | 0.0 | 0.0 | 0.00 | 0.00 | 0.00 | 56 | 1005.7 |
| 20260509012745 | 56 | 182 | 0.0 | 0.0 | 0.00 | 0.00 | 0.00 | 56 | 1005.7 |
| 20260509012241 | 56 | 182 | 0.0 | 0.0 | 0.00 | 0.00 | 0.00 | 54 | 1005.7 |
| 20260509011739 | 56 | 182 | 0.0 | 0.0 | 0.00 | 0.00 | 0.00 | 54 | 1005.8 |
| 20260509011236 | 57 | 182 | 0.0 | 0.0 | 0.00 | 0.00 | 0.00 | 53 | 1005.6 |
| 20260509010729 | 57 | 182 | 0.0 | 0.0 | 0.00 | 0.00 | 0.00 | 52 | 1005.6 |
| 20260509010225 | 57 | 182 | 0.0 | 0.0 | 0.00 | 0.00 | 0.00 | 52 | 1005.7 |
| 20260509005722 | 57 | 182 | 0.0 | 0.0 | 0.00 | 0.00 | 0.00 | 50 | 1005.7 |
| 20260509005219 | 58 | 182 | 0.0 | 1.0 | 0.00 | 0.00 | 0.00 | 49 | 1005.7 |
| 20260509004714 | 58 | 182 | 0.0 | 0.0 | 0.00 | 0.00 | 0.00 | 49 | 1005.6 |
| 20260509004212 | 58 | 182 | 0.0 | 0.0 | 0.00 | 0.00 | 0.00 | 48 | 1005.9 |
| 20260509003710 | 59 | 182 | 0.0 | 0.0 | 0.00 | 0.00 | 0.00 | 47 | 1005.7 |
| 20260509003207 | 59 | 182 | 0.0 | 0.0 | 0.00 | 0.00 | 0.00 | 46 | 1005.8 |
| 20260509002704 | 59 | 182 | 0.0 | 0.0 | 0.00 | 0.00 | 0.00 | 45 | 1005.8 |
| 20260509002201 | 59 | 182 | 0.0 | 0.0 | 0.00 | 0.00 | 0.00 | 43 | 1005.9 |
| 20260509001659 | 60 | 182 | 2.0 | 3.0 | 0.00 | 0.00 | 0.00 | 42 | 1005.7 |
| 20260509001155 | 60 | 182 | 2.0 | 2.0 | 0.00 | 0.00 | 0.00 | 41 | 1005.7 |
| 20260509000653 | 61 | 182 | 0.0 | 1.0 | 0.00 | 0.00 | 0.00 | 39 | 1005.7 |
| 20260509000149 | 62 | 182 | 1.0 | 2.0 | 0.00 | 0.00 | 0.00 | 38 | 1005.6 |
| 20260508235646 | 62 | 182 | 0.0 | 1.0 | 0.00 | 0.00 | 0.00 | 37 | 1005.9 |
| 20260508235143 | 64 | 182 | 1.0 | 1.0 | 0.00 | 0.00 | 0.00 | 35 | 1005.9 |
| 20260508234640 | 66 | 182 | 0.0 | 0.0 | 0.00 | 0.00 | 0.00 | 31 | 1005.7 |
| 20260508234137 | 66 | 182 | 0.0 | 0.0 | 0.00 | 0.00 | 0.00 | 32 | 1005.9 |
| 20260508233636 | 66 | 182 | 0.0 | 0.0 | 0.00 | 0.00 | 0.00 | 32 | 1005.9 |
| 20260508233133 | 66 | 182 | 0.0 | 0.0 | 0.00 | 0.00 | 0.00 | 32 | 1006.0 |
| 20260508232630 | 66 | 182 | 0.0 | 0.0 | 0.00 | 0.00 | 0.00 | 33 | 1005.9 |
| 20260508232128 | 66 | 182 | 0.0 | 1.0 | 0.00 | 0.00 | 0.00 | 32 | 1005.9 |
| 20260508231625 | 66 | 182 | 0.0 | 0.0 | 0.00 | 0.00 | 0.00 | 33 | 1006.1 |
| 20260508231122 | 66 | 182 | 0.0 | 0.0 | 0.00 | 0.00 | 0.00 | 32 | 1005.9 |
| 20260508230618 | 65 | 182 | 0.0 | 0.0 | 0.00 | 0.00 | 0.00 | 33 | 1006.2 |
| 20260508230114 | 66 | 182 | 0.0 | 0.0 | 0.00 | 0.00 | 0.00 | 32 | 1006.1 |
| 20260508225612 | 66 | 182 | 0.0 | 0.0 | 0.00 | 0.00 | 0.00 | 32 | 1006.1 |
| 20260508225108 | 66 | 182 | 0.0 | 0.0 | 0.00 | 0.00 | 0.00 | 33 | 1006.4 |
| 20260508224606 | 66 | 182 | 0.0 | 0.0 | 0.00 | 0.00 | 0.00 | 31 | 1006.2 |
| 20260508224103 | 66 | 182 | 0.0 | 0.0 | 0.00 | 0.00 | 0.00 | 32 | 1006.2 |
| 20260508223601 | 66 | 182 | 0.0 | 0.0 | 0.00 | 0.00 | 0.00 | 31 | 1006.3 |
| 20260508223058 | 66 | 182 | 0.0 | 0.0 | 0.00 | 0.00 | 0.00 | 31 | 1006.2 |
| 20260508222555 | 67 | 182 | 0.0 | 0.0 | 0.00 | 0.00 | 0.00 | 32 | 1006.4 |
| 20260508222052 | 67 | 182 | 0.0 | 0.0 | 0.00 | 0.00 | 0.00 | 32 | 1006.4 |
| 20260508221549 | 67 | 182 | 1.0 | 1.0 | 0.00 | 0.00 | 0.00 | 30 | 1006.3 |
| 20260508221044 | 67 | 182 | 0.0 | 0.0 | 0.00 | 0.00 | 0.00 | 29 | 1006.4 |
| 20260508220541 | 67 | 182 | 0.0 | 1.0 | 0.00 | 0.00 | 0.00 | 30 | 1006.6 |
| 20260508220038 | 67 | 182 | 0.0 | 0.0 | 0.00 | 0.00 | 0.00 | 30 | 1006.5 |
| 20260508215535 | 66 | 182 | 0.0 | 0.0 | 0.00 | 0.00 | 0.00 | 32 | 1006.5 |